Xenia, Kansas
Current Conditions -  °F | °C
As of 11:52 AM on Thursday 29 Jan 2015 (Local Time) from KCNU Reporting Station
Overcast Overcast  
Wind Chill: 37°   Ceiling: 3700
Heat Index: 45°   Visibility: 10mi
Dew Point: 30°   Wind: 20mph
Humidity: 56%   Direction: 330°NNW
Pressure: 30.4"   Gusts: 30mph
Location:  37.9449°N, 95.0016°W
Report Text: KCNU 291752Z AUTO 33017G26KT 10SM OVC037 07/M01 A3040 RMK AO2 PK WND 34026/1743 SLP292 T00721011 10072 20044 51027
Loading
Personal Weather Stations






























Interactive Weather Map New forecast layout! Learn more

10-Day Weather Forecast

Advertisements
Track Severe Weather on mobile